Terminal Aerodrome Forecast
Issued by NWS Mt. Holly, NJ

Current Version | Previous Version | Text Only | Print | Product List | Glossary On
Versions: 1 2 3 4 5 6 7 8 9 10 11 12 13 14 15 16 17 18 19 20 21
000
FTUS41 KPHI 022340
TAFABE
TAF
KABE 022340Z 0300/0324 29008KT P6SM SKC
     FM030400 31004KT P6SM SCT250
     FM031200 VRB03KT P6SM BKN150
     FM031700 16005KT P6SM OVC100
     FM032000 14007KT 2SM -SN OVC025
     FM032200 14007KT 3SM -PL OVC015=

USA.gov is the U.S. government's official web portal to all federal, state and local government web resources and services.